Time;durP1;ratioP1;P1;durP2;ratioP2;P2;SDS_P1;SDS_P2;PMS_P1;PMS_P2;Temp;Humidity;BMP_temperature;BMP_pressure;BME280_temperature;BME280_humidity;BME280_pressure;Samples;Min_cycle;Max_cycle;Signal;HPM_P1;HPM_P2
2023/08/15 00:01:55;;;;;;;10.57;8.50;;;512.20;2380.80;;;;;;4972123;28;20027;-62
2023/08/15 00:04:21;;;;;;;11.82;7.97;;;512.30;2380.80;;;;;;4972389;28;20078;-72
2023/08/15 00:06:47;;;;;;;10.05;8.68;;;512.20;2380.80;;;;;;4972718;28;20027;-66
2023/08/15 00:09:12;;;;;;;9.95;8.95;;;512.10;2380.80;;;;;;4972356;28;20050;-72
2023/08/15 00:11:38;;;;;;;10.73;8.50;;;512.00;2380.80;;;;;;4954843;28;20401;-71
2023/08/15 00:14:04;;;;;;;8.68;7.80;;;512.10;2380.80;;;;;;4972267;28;20062;-73
2023/08/15 00:16:29;;;;;;;10.55;8.90;;;512.10;2380.80;;;;;;4971829;28;20027;-71
2023/08/15 00:18:55;;;;;;;9.68;8.68;;;512.10;2380.80;;;;;;4972167;28;20035;-72
2023/08/15 00:21:21;;;;;;;10.88;8.82;;;512.00;2380.80;;;;;;4971950;28;20019;-73
2023/08/15 00:23:46;;;;;;;10.05;8.77;;;512.00;2380.80;;;;;;4972193;28;20035;-72
2023/08/15 00:26:12;;;;;;;9.68;8.68;;;487.20;2380.80;;;;;;4972042;28;20076;-73
2023/08/15 00:28:38;;;;;;;10.93;9.00;;;487.10;2380.80;;;;;;4971916;28;20037;-68
2023/08/15 00:31:03;;;;;;;11.55;8.73;;;487.00;2380.80;;;;;;4972095;28;20058;-73
2023/08/15 00:33:29;;;;;;;11.63;9.18;;;487.10;2380.80;;;;;;4971954;28;20027;-66
2023/08/15 00:35:55;;;;;;;9.88;8.88;;;487.10;2380.80;;;;;;4971931;28;20113;-73
2023/08/15 00:38:20;;;;;;;10.32;9.18;;;487.20;2380.80;;;;;;4971767;28;20428;-70
2023/08/15 00:40:46;;;;;;;9.55;8.55;;;487.20;2380.80;;;;;;4971819;28;20034;-72
2023/08/15 00:43:12;;;;;;;10.25;8.13;;;487.10;2380.80;;;;;;4971550;28;20109;-72
2023/08/15 00:45:41;;;;;;;10.05;8.60;;;487.10;2380.80;;;;;;4971092;28;20547;-66
2023/08/15 00:48:07;;;;;;;9.80;8.68;;;487.10;2380.80;;;;;;4971641;28;20102;-70
2023/08/15 00:50:34;;;;;;;14.23;9.40;;;487.10;2380.80;;;;;;4971610;28;20154;-73
2023/08/15 00:53:01;;;;;;;12.68;8.85;;;487.10;2380.80;;;;;;4971596;28;20580;-73
2023/08/15 00:55:28;;;;;;;10.18;9.00;;;487.10;2380.80;;;;;;4980576;28;20034;-73
2023/08/15 00:57:55;;;;;;;11.77;8.52;;;487.10;2380.80;;;;;;4978059;28;20030;-72
2023/08/15 01:00:21;;;;;;;11.40;8.90;;;487.00;2380.80;;;;;;4981325;28;20366;-68
2023/08/15 01:02:47;;;;;;;11.60;9.40;;;487.10;2380.80;;;;;;4970795;28;20166;-62
2023/08/15 01:05:18;;;;;;;9.35;8.27;;;512.00;2380.80;;;;;;4971739;28;20019;-69
2023/08/15 01:07:44;;;;;;;12.43;8.88;;;487.10;2380.80;;;;;;4988953;28;20026;-71
2023/08/15 01:10:10;;;;;;;13.82;8.70;;;487.00;2380.80;;;;;;4991972;28;20373;-72
2023/08/15 01:12:51;;;;;;;9.68;8.68;;;487.10;2380.80;;;;;;4991464;28;20064;-70
2023/08/15 01:15:25;;;;;;;12.48;9.55;;;486.90;2380.80;;;;;;4990522;28;20126;-64
2023/08/15 01:18:11;;;;;;;12.20;9.77;;;486.90;2380.80;;;;;;4978585;28;20018;-70
2023/08/15 01:20:38;;;;;;;10.05;8.35;;;486.90;2380.80;;;;;;4990988;28;20030;-69
2023/08/15 01:23:06;;;;;;;9.88;8.45;;;486.90;2380.80;;;;;;4991167;28;20086;-75
2023/08/15 01:25:38;;;;;;;9.73;8.73;;;487.00;2380.80;;;;;;4991021;28;20438;-75
2023/08/15 01:28:04;;;;;;;10.68;8.63;;;486.90;2380.80;;;;;;4991133;28;20222;-73
2023/08/15 01:30:29;;;;;;;12.07;8.65;;;486.80;2380.80;;;;;;4990544;28;20480;-73
2023/08/15 01:33:00;;;;;;;11.65;9.80;;;486.80;2380.80;;;;;;4990630;28;20439;-73
2023/08/15 01:35:37;;;;;;;11.85;9.18;;;486.80;2380.80;;;;;;4990308;28;20026;-73
2023/08/15 01:38:11;;;;;;;12.82;10.18;;;486.80;2380.80;;;;;;4990246;28;20022;-73
2023/08/15 01:40:38;;;;;;;13.10;9.55;;;486.80;2380.80;;;;;;4990166;28;20026;-67
2023/08/15 01:43:05;;;;;;;11.23;9.90;;;486.60;2380.80;;;;;;4990073;28;20034;-72
2023/08/15 01:45:32;;;;;;;12.35;9.13;;;486.60;2380.80;;;;;;4990113;28;20461;-73
2023/08/15 01:47:58;;;;;;;10.75;9.75;;;486.60;2380.80;;;;;;4989795;28;20092;-71
2023/08/15 01:50:24;;;;;;;10.95;9.50;;;486.60;2380.80;;;;;;4990254;28;20532;-72
2023/08/15 01:52:49;;;;;;;13.30;9.52;;;486.60;2380.80;;;;;;4989731;28;20377;-74
2023/08/15 01:55:15;;;;;;;9.90;8.57;;;486.60;2380.80;;;;;;4989824;28;20037;-73
2023/08/15 01:57:41;;;;;;;9.43;8.43;;;486.70;2380.80;;;;;;4989835;28;20080;-73
2023/08/15 02:00:07;;;;;;;9.65;8.55;;;486.70;2380.80;;;;;;4990256;28;20062;-72
2023/08/15 02:02:33;;;;;;;9.60;8.68;;;486.70;2380.80;;;;;;4989751;28;20543;-74
2023/08/15 02:05:01;;;;;;;9.93;9.00;;;486.70;2380.80;;;;;;4989605;28;20069;-74
2023/08/15 02:07:28;;;;;;;9.50;8.50;;;486.70;2380.80;;;;;;4989709;28;20022;-71
2023/08/15 02:09:53;;;;;;;10.00;8.40;;;486.70;2380.80;;;;;;4989731;28;20057;-73
2023/08/15 02:12:19;;;;;;;9.82;8.15;;;486.60;2380.80;;;;;;4989144;28;20489;-73
2023/08/15 02:14:45;;;;;;;12.38;8.95;;;486.60;2380.80;;;;;;4989661;28;20038;-64
2023/08/15 02:17:10;;;;;;;11.20;8.88;;;486.60;2380.80;;;;;;4989578;28;20019;-74
2023/08/15 02:19:36;;;;;;;10.23;8.35;;;486.60;2380.80;;;;;;4989811;28;20049;-74
2023/08/15 02:22:02;;;;;;;9.63;8.40;;;486.70;2380.80;;;;;;4989565;28;20101;-74
2023/08/15 02:24:29;;;;;;;11.68;8.50;;;486.60;2380.80;;;;;;4989409;28;20061;-69
2023/08/15 02:26:55;;;;;;;12.27;10.25;;;486.50;2380.80;;;;;;4989689;28;20528;-73
2023/08/15 02:29:20;;;;;;;11.73;9.38;;;486.50;2380.80;;;;;;4989397;28;20054;-73
2023/08/15 02:31:47;;;;;;;10.82;8.40;;;486.50;2380.80;;;;;;4989391;28;20029;-73
2023/08/15 02:34:16;;;;;;;11.68;9.85;;;486.50;2380.80;;;;;;4989624;28;20075;-71
2023/08/15 02:36:47;;;;;;;12.07;8.77;;;486.50;2380.80;;;;;;4989615;28;20148;-70
2023/08/15 02:39:18;;;;;;;13.00;9.25;;;486.40;2380.80;;;;;;4989745;28;20058;-70
2023/08/15 02:41:44;;;;;;;10.77;9.35;;;486.50;2380.80;;;;;;4971900;28;20042;-72
2023/08/15 02:44:10;;;;;;;10.77;8.63;;;486.50;2380.80;;;;;;4989209;28;20022;-70
2023/08/15 02:46:35;;;;;;;10.30;8.85;;;486.50;2380.80;;;;;;4971890;28;20081;-71
2023/08/15 02:49:02;;;;;;;11.40;8.50;;;486.60;2380.80;;;;;;4989691;28;20030;-71
2023/08/15 02:51:27;;;;;;;9.90;8.90;;;486.70;2380.80;;;;;;4989235;28;20030;-69
2023/08/15 02:53:53;;;;;;;10.90;8.88;;;486.80;2380.80;;;;;;4989550;28;20023;-71
2023/08/15 02:56:19;;;;;;;9.23;8.02;;;486.70;2380.80;;;;;;4989153;28;20037;-73
2023/08/15 02:58:44;;;;;;;9.85;7.88;;;486.70;2380.80;;;;;;4989463;28;20026;-70
2023/08/15 03:01:10;;;;;;;9.50;8.52;;;486.60;2380.80;;;;;;4989508;28;20026;-72
2023/08/15 03:03:36;;;;;;;10.85;8.43;;;486.70;2380.80;;;;;;4989519;28;20491;-72
2023/08/15 03:06:03;;;;;;;10.00;9.00;;;486.60;2380.80;;;;;;4989101;28;20424;-72
2023/08/15 03:08:29;;;;;;;9.65;8.23;;;486.60;2380.80;;;;;;4991129;28;20028;-69
2023/08/15 03:10:55;;;;;;;11.15;9.02;;;486.60;2380.80;;;;;;4993122;28;20108;-72
2023/08/15 03:13:21;;;;;;;9.35;7.93;;;486.70;2380.80;;;;;;4992681;28;20054;-73
2023/08/15 03:15:56;;;;;;;10.73;9.43;;;486.60;2380.80;;;;;;4992643;28;20040;-69
2023/08/15 03:18:21;;;;;;;12.32;9.43;;;486.60;2380.80;;;;;;4992816;28;20054;-73
2023/08/15 03:21:01;;;;;;;13.07;8.20;;;486.50;2380.80;;;;;;4988677;28;20023;-63
2023/08/15 03:23:27;;;;;;;12.32;9.57;;;486.40;2380.80;;;;;;4985898;28;20415;-74
2023/08/15 03:25:59;;;;;;;14.57;9.05;;;486.40;2380.80;;;;;;4992972;28;20034;-73
2023/08/15 03:28:26;;;;;;;10.57;9.48;;;486.40;2380.80;;;;;;4992506;28;20053;-73
2023/08/15 03:30:52;;;;;;;11.18;8.65;;;486.40;2380.80;;;;;;4992706;28;20037;-72
2023/08/15 03:33:18;;;;;;;12.38;9.32;;;486.40;2380.80;;;;;;4992473;28;20108;-72
2023/08/15 03:35:50;;;;;;;11.75;8.75;;;486.50;2380.80;;;;;;4992678;28;20592;-72
2023/08/15 03:38:19;;;;;;;9.65;8.68;;;486.40;2380.80;;;;;;4992226;28;20030;-72
2023/08/15 03:40:46;;;;;;;10.55;9.10;;;461.70;2380.80;;;;;;4992671;28;20110;-63
2023/08/15 03:43:12;;;;;;;11.68;9.35;;;486.40;2380.80;;;;;;4992186;28;20480;-73
2023/08/15 03:45:39;;;;;;;11.32;9.88;;;486.40;2380.80;;;;;;4992109;28;20128;-72
2023/08/15 03:48:06;;;;;;;11.23;9.68;;;486.40;2380.80;;;;;;4992599;28;20062;-71
2023/08/15 03:50:36;;;;;;;14.10;9.68;;;486.50;2380.80;;;;;;4992112;28;20465;-71
2023/08/15 03:53:02;;;;;;;12.40;9.20;;;486.40;2380.80;;;;;;4992296;28;20034;-71
2023/08/15 03:55:31;;;;;;;9.60;8.60;;;486.40;2380.80;;;;;;4992144;28;20033;-69
2023/08/15 03:57:57;;;;;;;9.70;8.52;;;461.60;2380.80;;;;;;4992516;28;20117;-72
2023/08/15 04:00:24;;;;;;;12.13;9.52;;;486.50;2380.80;;;;;;4992506;28;20038;-73
2023/08/15 04:02:50;;;;;;;10.82;8.77;;;486.60;2380.80;;;;;;4991752;28;20049;-73
2023/08/15 04:05:17;;;;;;;8.57;7.60;;;486.70;2380.80;;;;;;4992031;28;20477;-74
2023/08/15 04:07:44;;;;;;;9.10;7.95;;;486.90;2380.80;;;;;;4992008;28;20034;-72
2023/08/15 04:10:13;;;;;;;9.25;8.23;;;486.90;2380.80;;;;;;4991813;28;20041;-74
2023/08/15 04:12:39;;;;;;;10.05;9.05;;;487.20;2380.80;;;;;;4991677;28;20390;-68
2023/08/15 04:15:05;;;;;;;14.85;9.52;;;487.30;2380.80;;;;;;4991740;28;20050;-70
2023/08/15 04:17:31;;;;;;;9.50;8.60;;;512.20;2380.80;;;;;;4991734;28;20014;-73
2023/08/15 04:19:57;;;;;;;9.63;8.70;;;512.50;2380.80;;;;;;4990658;28;20469;-74
2023/08/15 04:22:22;;;;;;;9.85;8.70;;;512.80;2380.80;;;;;;4991659;28;20374;-72
2023/08/15 04:24:48;;;;;;;10.25;8.95;;;512.60;2380.80;;;;;;4991348;28;20030;-71
2023/08/15 04:27:14;;;;;;;9.98;8.98;;;512.80;2380.80;;;;;;4991898;28;20022;-73
2023/08/15 04:29:40;;;;;;;12.18;8.88;;;537.70;2406.40;;;;;;4986352;28;20544;-74
2023/08/15 04:32:06;;;;;;;9.80;8.70;;;537.90;2406.40;;;;;;4991366;28;20022;-74
2023/08/15 04:34:31;;;;;;;11.90;8.38;;;538.00;2406.40;;;;;;4991234;28;20084;-73
2023/08/15 04:36:57;;;;;;;10.48;8.32;;;538.10;2406.40;;;;;;4991455;28;20040;-74
2023/08/15 04:39:24;;;;;;;11.45;8.60;;;538.10;2406.40;;;;;;4976875;28;20082;-71
2023/08/15 04:41:50;;;;;;;11.73;8.35;;;538.40;2406.40;;;;;;4979352;28;20022;-68
2023/08/15 04:44:15;;;;;;;9.30;8.30;;;538.50;2406.40;;;;;;4991088;28;20527;-71
2023/08/15 04:46:41;;;;;;;10.05;8.48;;;563.50;2432.00;;;;;;4991175;28;20033;-70
2023/08/15 04:49:07;;;;;;;8.35;7.55;;;563.70;2432.00;;;;;;4979102;28;20540;-71
2023/08/15 04:51:33;;;;;;;15.85;9.60;;;563.90;2432.00;;;;;;4992108;28;20076;-72
2023/08/15 04:53:58;;;;;;;12.25;9.18;;;588.90;2432.00;;;;;;4991882;28;20030;-73
2023/08/15 04:56:24;;;;;;;14.75;8.45;;;615.20;2432.00;;;;;;4991791;28;20064;-73
2023/08/15 04:58:50;;;;;;;11.13;8.55;;;665.70;2432.00;;;;;;4992984;28;20023;-73
2023/08/15 05:01:16;;;;;;;11.00;7.60;;;691.60;2406.40;;;;;;4994030;28;20025;-64
2023/08/15 05:03:41;;;;;;;9.40;8.50;;;717.50;2201.60;;;;;;4982494;28;20030;-70
2023/08/15 05:06:09;;;;;;;9.25;8.20;;;717.60;2124.80;;;;;;4975445;28;20531;-70
2023/08/15 05:08:34;;;;;;;11.75;8.30;;;692.10;2150.40;;;;;;4981690;28;20030;-70
2023/08/15 05:11:00;;;;;;;16.67;8.57;;;691.70;2201.60;;;;;;4987196;28;20037;-67
2023/08/15 05:13:26;;;;;;;11.38;8.35;;;691.80;2176.00;;;;;;5000490;28;20106;-62
2023/08/15 05:15:53;;;;;;;14.18;8.93;;;666.40;2252.80;;;;;;5000188;28;20030;-70
2023/08/15 05:18:20;;;;;;;9.13;8.23;;;691.90;2201.60;;;;;;4994517;28;20428;-71
2023/08/15 05:20:47;;;;;;;12.35;8.55;;;666.20;2304.00;;;;;;4991137;28;20034;-69
2023/08/15 05:23:13;;;;;;;11.00;7.85;;;665.80;2329.60;;;;;;4990859;28;20030;-68
2023/08/15 05:25:41;;;;;;;10.18;7.95;;;640.80;2329.60;;;;;;4990518;28;20030;-71
2023/08/15 05:28:07;;;;;;;9.88;8.88;;;640.70;2329.60;;;;;;4990974;28;20113;-64
2023/08/15 05:30:33;;;;;;;10.73;8.32;;;666.00;2329.60;;;;;;4990688;28;20015;-69
2023/08/15 05:32:59;;;;;;;11.48;8.35;;;691.50;2252.80;;;;;;4990347;28;20061;-69
2023/08/15 05:35:25;;;;;;;9.43;8.43;;;666.50;2278.40;;;;;;4990751;28;20036;-69
2023/08/15 05:37:51;;;;;;;10.75;7.65;;;666.20;2304.00;;;;;;4990375;28;20045;-70
2023/08/15 05:40:17;;;;;;;12.30;8.00;;;665.60;2355.20;;;;;;4990292;28;20046;-70
2023/08/15 05:42:42;;;;;;;8.57;7.78;;;691.40;2252.80;;;;;;4990658;28;20027;-70
2023/08/15 05:45:09;;;;;;;9.60;6.95;;;768.20;1971.20;;;;;;4989958;28;20473;-71
2023/08/15 05:47:35;;;;;;;10.07;8.18;;;768.10;1971.20;;;;;;4990400;28;20022;-70
2023/08/15 05:50:01;;;;;;;10.35;7.85;;;819.60;1817.60;;;;;;4990314;28;20015;-71
2023/08/15 05:52:27;;;;;;;9.10;8.23;;;870.90;1689.60;;;;;;4990455;28;20057;-66
2023/08/15 05:54:53;;;;;;;9.82;7.85;;;896.50;1612.80;;;;;;4990045;28;20425;-70
2023/08/15 05:57:20;;;;;;;9.25;8.25;;;871.00;1612.80;;;;;;4990590;28;20061;-71
2023/08/15 05:59:45;;;;;;;9.63;8.52;;;870.60;1664.00;;;;;;4990270;28;20109;-70
2023/08/15 06:02:12;;;;;;;10.07;9.02;;;896.80;1561.60;;;;;;4990174;28;20458;-71
2023/08/15 06:04:38;;;;;;;10.13;7.32;;;948.10;1459.20;;;;;;4976886;28;20089;-70
2023/08/15 06:07:03;;;;;;;8.35;7.55;;;921.80;1536.00;;;;;;4990460;28;20060;-71
2023/08/15 06:09:30;;;;;;;8.43;7.60;;;870.50;1664.00;;;;;;4989864;28;20678;-70
2023/08/15 06:11:55;;;;;;;10.63;8.73;;;820.00;1715.20;;;;;;4989982;28;20408;-69
2023/08/15 06:14:21;;;;;;;11.52;8.18;;;794.30;1792.00;;;;;;4990020;28;20061;-70
2023/08/15 06:16:48;;;;;;;9.02;8.13;;;768.90;1817.60;;;;;;4989783;28;20023;-62
2023/08/15 06:19:13;;;;;;;9.38;7.47;;;743.30;1894.40;;;;;;4990101;28;20093;-69
2023/08/15 06:21:42;;;;;;;13.95;8.48;;;742.70;1945.60;;;;;;4989815;28;20029;-71
2023/08/15 06:24:12;;;;;;;9.85;8.80;;;819.20;1817.60;;;;;;4989438;28;20030;-70
2023/08/15 06:26:39;;;;;;;11.38;9.98;;;896.40;1587.20;;;;;;4989802;28;20448;-71
2023/08/15 06:29:06;;;;;;;9.32;8.43;;;922.10;1536.00;;;;;;4989959;28;20555;-71
2023/08/15 06:31:33;;;;;;;11.95;9.25;;;948.10;1459.20;;;;;;4989630;28;20054;-71
2023/08/15 06:34:00;;;;;;;10.93;9.85;;;1024.10;1382.40;;;;;;4989533;28;20026;-70
2023/08/15 06:36:25;;;;;;;11.20;10.07;;;1050.00;1331.20;;;;;;4990062;28;20037;-70
2023/08/15 06:38:51;;;;;;;11.32;10.43;;;1049.70;1305.60;;;;;;4989406;28;20023;-71
2023/08/15 06:41:17;;;;;;;11.45;10.35;;;998.80;1382.40;;;;;;4990091;28;20476;-70
2023/08/15 06:43:44;;;;;;;10.73;9.73;;;998.80;1382.40;;;;;;4992327;28;20105;-71
2023/08/15 06:46:15;;;;;;;11.25;10.23;;;998.70;1356.80;;;;;;4993265;28;20026;-69
2023/08/15 06:48:41;;;;;;;11.57;10.40;;;998.60;1382.40;;;;;;4993490;28;20101;-68
2023/08/15 06:51:07;;;;;;;10.98;9.80;;;1024.50;1305.60;;;;;;4993731;28;20105;-70
2023/08/15 06:53:33;;;;;;;15.00;10.13;;;1024.30;1280.00;;;;;;4993483;28;20068;-68
2023/08/15 06:55:58;;;;;;;12.73;10.27;;;896.50;1433.60;;;;;;4993415;28;20062;-66
2023/08/15 06:58:25;;;;;;;13.93;10.98;;;870.40;1561.60;;;;;;4993466;28;20026;-70
2023/08/15 07:00:50;;;;;;;14.68;12.88;;;845.60;1587.20;;;;;;4993151;28;20137;-68
2023/08/15 07:03:17;;;;;;;16.13;12.40;;;947.60;1408.00;;;;;;4993227;28;20026;-69
2023/08/15 07:05:44;;;;;;;16.02;11.90;;;998.80;1356.80;;;;;;4993369;28;20026;-69
2023/08/15 07:08:12;;;;;;;13.48;11.90;;;947.50;1408.00;;;;;;4993297;28;20022;-70
2023/08/15 07:10:39;;;;;;;14.65;12.43;;;973.40;1382.40;;;;;;4993003;28;20030;-70
2023/08/15 07:13:05;;;;;;;13.60;12.23;;;1049.60;1280.00;;;;;;4993303;28;20058;-70
2023/08/15 07:15:31;;;;;;;18.42;13.10;;;1100.90;1228.80;;;;;;4992757;28;20041;-67
2023/08/15 07:17:56;;;;;;;16.17;12.00;;;1126.50;1177.60;;;;;;4993025;28;20058;-69
2023/08/15 07:20:22;;;;;;;12.82;11.63;;;1075.40;1203.20;;;;;;4993134;28;20068;-70
2023/08/15 07:22:48;;;;;;;13.80;12.40;;;1100.80;1203.20;;;;;;4992888;28;20030;-69
2023/08/15 07:25:14;;;;;;;14.65;13.05;;;1101.50;1177.60;;;;;;4993097;28;20068;-69
2023/08/15 07:27:39;;;;;;;13.70;12.40;;;1101.70;1126.40;;;;;;4992767;28;20027;-69
2023/08/15 07:30:06;;;;;;;17.05;12.82;;;1177.70;1100.80;;;;;;4993136;28;20057;-69
2023/08/15 07:32:34;;;;;;;12.82;11.73;;;1152.40;1100.80;;;;;;4992734;28;20030;-70
2023/08/15 07:35:00;;;;;;;14.07;12.40;;;1126.90;1075.20;;;;;;4992445;28;20038;-69
2023/08/15 07:37:26;;;;;;;14.18;11.65;;;1178.00;1049.60;;;;;;4992836;28;20077;-69
2023/08/15 07:40:06;;;;;;;18.67;16.77;;;1177.80;1024.00;;;;;;4992274;28;20030;-69
2023/08/15 07:42:31;;;;;;;17.23;15.73;;;1152.50;1075.20;;;;;;4992550;28;20113;-69
2023/08/15 07:44:58;;;;;;;19.33;17.33;;;1126.90;1100.80;;;;;;4992186;28;20105;-65
2023/08/15 07:47:24;;;;;;;15.80;14.38;;;1152.00;1075.20;;;;;;4992505;28;20034;-70
2023/08/15 07:49:50;;;;;;;16.95;13.88;;;1101.40;1126.40;;;;;;4992332;28;20024;-69
2023/08/15 07:52:15;;;;;;;13.73;12.52;;;1152.00;1126.40;;;;;;4992551;28;20069;-69
2023/08/15 07:54:43;;;;;;;13.60;12.20;;;1101.20;1126.40;;;;;;4992125;28;20045;-69
2023/08/15 07:57:09;;;;;;;16.25;14.55;;;1152.20;1075.20;;;;;;4992303;28;20520;-69
2023/08/15 07:59:35;;;;;;;20.98;18.77;;;1126.80;1100.80;;;;;;4992565;28;20046;-69
2023/08/15 08:02:00;;;;;;;17.52;15.73;;;1126.40;1126.40;;;;;;4992353;28;20106;-67
2023/08/15 08:04:26;;;;;;;16.85;12.77;;;1177.80;1049.60;;;;;;4992098;28;20476;-68
2023/08/15 08:06:52;;;;;;;12.82;11.65;;;1126.90;1100.80;;;;;;4991934;28;20026;-67
2023/08/15 08:09:17;;;;;;;13.15;11.77;;;1126.80;1100.80;;;;;;4974147;28;20125;-64
2023/08/15 08:11:44;;;;;;;13.80;12.48;;;1127.30;1075.20;;;;;;4992407;28;20045;-66
2023/08/15 08:14:10;;;;;;;14.48;13.25;;;1126.70;1126.40;;;;;;4991461;28;20046;-68
2023/08/15 08:16:35;;;;;;;15.07;13.32;;;1152.90;1049.60;;;;;;4991991;28;20041;-68
2023/08/15 08:19:01;;;;;;;15.65;11.75;;;1203.30;1049.60;;;;;;4978582;28;20532;-69
2023/08/15 08:21:27;;;;;;;14.90;13.73;;;1152.50;1049.60;;;;;;4991940;28;20026;-68
2023/08/15 08:23:52;;;;;;;13.80;12.35;;;1152.20;1100.80;;;;;;4991691;28;20034;-67
2023/08/15 08:26:18;;;;;;;13.55;12.18;;;1126.70;1126.40;;;;;;4991639;28;20081;-68
2023/08/15 08:28:44;;;;;;;15.00;13.70;;;1126.40;1126.40;;;;;;4992145;28;20117;-68
2023/08/15 08:31:09;;;;;;;13.43;12.20;;;1075.70;1126.40;;;;;;4991796;28;20030;-69
2023/08/15 08:33:35;;;;;;;14.07;12.88;;;1100.90;1152.00;;;;;;4989940;28;20444;-70
2023/08/15 08:36:01;;;;;;;15.88;12.30;;;1126.40;1126.40;;;;;;4980479;28;20066;-69
2023/08/15 08:38:26;;;;;;;13.82;12.63;;;1075.80;1100.80;;;;;;4991143;28;20023;-67
2023/08/15 08:40:55;;;;;;;13.77;11.23;;;1050.40;1152.00;;;;;;4991394;28;20034;-67
2023/08/15 08:43:21;;;;;;;11.80;10.75;;;973.30;1254.40;;;;;;4991519;28;20027;-66
2023/08/15 08:45:51;;;;;;;15.07;8.55;;;947.40;1305.60;;;;;;4991576;28;20053;-64
2023/08/15 08:48:18;;;;;;;11.23;8.90;;;896.70;1356.80;;;;;;4991411;28;20053;-67
2023/08/15 08:50:48;;;;;;;10.80;9.57;;;896.50;1408.00;;;;;;4991411;28;20030;-69
2023/08/15 08:53:14;;;;;;;8.82;8.02;;;896.30;1408.00;;;;;;4991475;28;20026;-63
2023/08/15 08:55:40;;;;;;;10.18;8.82;;;870.70;1433.60;;;;;;4991492;28;20097;-70
2023/08/15 08:58:10;;;;;;;12.95;8.75;;;845.40;1484.80;;;;;;4991391;28;20102;-69
2023/08/15 09:00:36;;;;;;;10.15;8.60;;;845.40;1510.40;;;;;;4991422;28;20031;-69
2023/08/15 09:03:02;;;;;;;11.23;8.63;;;845.40;1484.80;;;;;;4990807;28;20538;-68
2023/08/15 09:05:28;;;;;;;8.50;7.38;;;819.90;1510.40;;;;;;4990567;28;20113;-68
2023/08/15 09:07:54;;;;;;;10.30;7.57;;;819.80;1510.40;;;;;;4991002;28;20496;-67
2023/08/15 09:10:23;;;;;;;14.48;8.07;;;819.90;1484.80;;;;;;4990458;28;20026;-67
2023/08/15 09:12:49;;;;;;;8.90;7.45;;;844.80;1484.80;;;;;;4990565;28;20109;-67
2023/08/15 09:15:15;;;;;;;8.05;7.25;;;820.10;1459.20;;;;;;4991166;28;20042;-65
2023/08/15 09:17:42;;;;;;;7.45;6.75;;;845.10;1459.20;;;;;;4992439;28;20028;-67
2023/08/15 09:20:09;;;;;;;12.23;8.48;;;844.80;1459.20;;;;;;4981344;28;20034;-65
2023/08/15 09:22:39;;;;;;;10.57;7.68;;;844.80;1484.80;;;;;;4991446;28;20030;-68
2023/08/15 09:25:05;;;;;;;9.55;7.70;;;820.10;1459.20;;;;;;4992291;28;20093;-71
2023/08/15 09:27:30;;;;;;;10.90;7.55;;;844.90;1484.80;;;;;;4990762;28;20479;-68
2023/08/15 09:29:56;;;;;;;13.80;7.50;;;844.90;1459.20;;;;;;4972870;28;20046;-69
2023/08/15 09:32:22;;;;;;;13.43;7.97;;;820.10;1459.20;;;;;;4990736;28;20080;-68
2023/08/15 09:34:48;;;;;;;12.57;7.15;;;819.90;1459.20;;;;;;4990629;28;20034;-68
2023/08/15 09:37:13;;;;;;;14.80;9.15;;;819.30;1510.40;;;;;;4990512;28;20497;-70
2023/08/15 09:39:40;;;;;;;9.45;7.63;;;819.40;1510.40;;;;;;4990330;28;20037;-68
2023/08/15 09:42:06;;;;;;;10.55;7.68;;;819.60;1484.80;;;;;;4990238;28;20113;-68
2023/08/15 09:44:34;;;;;;;10.98;7.32;;;819.60;1484.80;;;;;;4990182;28;20109;-69
2023/08/15 09:47:01;;;;;;;8.38;7.45;;;819.30;1484.80;;;;;;4989587;28;20046;-69
2023/08/15 09:49:30;;;;;;;10.63;6.68;;;819.20;1510.40;;;;;;4990328;28;20038;-69
2023/08/15 09:52:02;;;;;;;8.98;6.97;;;819.60;1510.40;;;;;;4990005;28;20105;-70
2023/08/15 09:54:30;;;;;;;8.80;6.83;;;819.70;1484.80;;;;;;4990009;28;20042;-68
2023/08/15 09:56:57;;;;;;;8.63;7.68;;;819.70;1459.20;;;;;;4990741;28;20523;-68
2023/08/15 09:59:23;;;;;;;8.90;7.43;;;820.00;1459.20;;;;;;4989647;28;20045;-69
2023/08/15 10:01:52;;;;;;;9.77;6.88;;;820.00;1459.20;;;;;;4989857;28;20109;-66
2023/08/15 10:04:19;;;;;;;12.30;7.82;;;845.10;1433.60;;;;;;4989669;28;20029;-69
2023/08/15 10:06:46;;;;;;;11.50;6.93;;;845.20;1408.00;;;;;;4990061;28;20022;-65
2023/08/15 10:09:14;;;;;;;7.00;5.90;;;845.50;1382.40;;;;;;4989735;28;20030;-69
2023/08/15 10:11:46;;;;;;;11.02;8.10;;;845.30;1356.80;;;;;;4990173;28;20058;-69
2023/08/15 10:14:18;;;;;;;8.68;6.40;;;844.90;1382.40;;;;;;4989899;28;20038;-68
2023/08/15 10:16:44;;;;;;;11.38;6.82;;;819.70;1356.80;;;;;;4989795;28;20032;-68
2023/08/15 10:19:17;;;;;;;7.53;6.82;;;820.00;1408.00;;;;;;4976706;28;20022;-69
2023/08/15 10:21:46;;;;;;;;;;;819.80;1382.40;;;;;;4990534;28;20037;-69
2023/08/15 10:24:12;;;;;;;9.55;7.20;;;819.30;1433.60;;;;;;4990173;28;20065;-69
2023/08/15 10:26:39;;;;;;;8.82;6.35;;;819.20;1459.20;;;;;;4989994;28;20683;-66
2023/08/15 10:29:05;;;;;;;11.07;7.03;;;819.30;1459.20;;;;;;4989868;28;20429;-70
2023/08/15 10:31:39;;;;;;;7.15;6.45;;;794.50;1459.20;;;;;;4989604;28;20026;-70
2023/08/15 10:34:09;;;;;;;8.35;6.60;;;794.00;1459.20;;;;;;4977067;28;20058;-70
2023/08/15 10:36:36;;;;;;;8.88;7.57;;;819.30;1459.20;;;;;;4989723;28;20038;-70
2023/08/15 10:39:06;;;;;;;7.78;6.80;;;819.50;1459.20;;;;;;4989173;28;20473;-68
2023/08/15 10:41:36;;;;;;;10.80;7.78;;;819.50;1459.20;;;;;;4988898;28;20477;-70
2023/08/15 10:44:07;;;;;;;8.88;7.15;;;819.30;1484.80;;;;;;4989610;28;20419;-69
2023/08/15 10:46:35;;;;;;;13.43;7.63;;;819.40;1484.80;;;;;;4989131;28;20022;-69
2023/08/15 10:49:06;;;;;;;11.98;7.22;;;794.30;1510.40;;;;;;4989634;28;20027;-71
2023/08/15 10:51:37;;;;;;;11.05;7.68;;;794.30;1510.40;;;;;;4989399;28;20504;-65
2023/08/15 10:54:05;;;;;;;9.77;7.60;;;794.00;1536.00;;;;;;4989596;28;20516;-70
2023/08/15 10:56:35;;;;;;;8.48;7.50;;;794.40;1510.40;;;;;;4989200;28;20034;-66
2023/08/15 10:59:13;;;;;;;10.07;6.95;;;794.40;1536.00;;;;;;4989526;28;20519;-67
2023/08/15 11:01:41;;;;;;;12.13;7.93;;;794.50;1536.00;;;;;;4989536;28;20030;-69
2023/08/15 11:04:08;;;;;;;12.05;7.25;;;819.20;1536.00;;;;;;4989537;28;20472;-67
2023/08/15 11:06:47;;;;;;;15.68;8.52;;;819.30;1510.40;;;;;;4989918;28;20109;-67
2023/08/15 11:09:14;;;;;;;8.32;7.03;;;819.50;1510.40;;;;;;4989419;28;20030;-69
2023/08/15 11:11:40;;;;;;;10.05;7.00;;;819.30;1510.40;;;;;;4989199;28;20042;-65
2023/08/15 11:14:19;;;;;;;8.73;6.68;;;794.20;1536.00;;;;;;4989270;28;20057;-69
2023/08/15 11:16:46;;;;;;;12.75;6.80;;;793.80;1561.60;;;;;;4991480;28;20126;-67
2023/08/15 11:19:18;;;;;;;10.07;6.78;;;794.20;1536.00;;;;;;4992882;28;20492;-64
2023/08/15 11:21:44;;;;;;;11.75;7.63;;;794.40;1536.00;;;;;;4993239;28;20026;-68
2023/08/15 11:24:10;;;;;;;12.82;8.32;;;794.40;1510.40;;;;;;4992831;28;20384;-60
2023/08/15 11:26:36;;;;;;;12.65;7.72;;;794.00;1561.60;;;;;;4992966;28;20023;-66
2023/08/15 11:29:03;;;;;;;9.77;6.38;;;793.80;1561.60;;;;;;4994286;28;20026;-67
2023/08/15 11:31:30;;;;;;;8.23;7.30;;;768.60;1536.00;;;;;;4990711;28;20031;-65
2023/08/15 11:33:58;;;;;;;8.85;7.72;;;768.10;1561.60;;;;;;4973692;28;20034;-67
2023/08/15 11:36:24;;;;;;;14.80;7.03;;;768.10;1561.60;;;;;;4990544;28;20034;-71
2023/08/15 11:38:49;;;;;;;9.07;7.65;;;768.10;1561.60;;;;;;4992417;28;20472;-69
2023/08/15 11:41:16;;;;;;;11.10;9.75;;;768.10;1612.80;;;;;;4992525;28;20030;-63
2023/08/15 11:43:41;;;;;;;12.70;8.40;;;768.00;1638.40;;;;;;4978206;28;20146;-70
2023/08/15 11:46:07;;;;;;;12.95;8.95;;;768.20;1638.40;;;;;;4972876;28;20488;-65
2023/08/15 11:48:34;;;;;;;12.75;9.95;;;768.40;1638.40;;;;;;4973128;28;20022;-66
2023/08/15 11:51:00;;;;;;;17.42;8.80;;;768.50;1638.40;;;;;;4955168;28;20039;-66
2023/08/15 11:53:26;;;;;;;10.73;8.00;;;768.40;1638.40;;;;;;4973156;28;20055;-66
2023/08/15 11:55:52;;;;;;;14.45;8.45;;;768.60;1612.80;;;;;;4973368;28;20038;-68
2023/08/15 11:58:29;;;;;;;13.20;8.43;;;768.50;1638.40;;;;;;4974951;28;20038;-65
2023/08/15 12:01:02;;;;;;;8.45;7.50;;;768.60;1612.80;;;;;;4982138;28;20082;-63
2023/08/15 12:03:29;;;;;;;14.57;9.18;;;768.60;1612.80;;;;;;4972195;28;20023;-68
2023/08/15 12:05:57;;;;;;;12.48;8.20;;;768.90;1612.80;;;;;;4972827;28;20540;-67
2023/08/15 12:08:25;;;;;;;11.07;8.70;;;793.80;1638.40;;;;;;4977941;28;20438;-69